Time;durP1;ratioP1;P1;durP2;ratioP2;P2;SDS_P1;SDS_P2;PMS_P1;PMS_P2;Temp;Humidity;BMP_temperature;BMP_pressure;BME280_temperature;BME280_humidity;BME280_pressure;Samples;Min_cycle;Max_cycle;Signal;HPM_P1;HPM_P2
2021/07/19 00:01:40;;;;;;;10.52;6.32;;;;;;;17.78;76.28;100193.66;4972841;28;20027;-66
2021/07/19 00:04:05;;;;;;;15.88;7.95;;;;;;;17.80;76.08;100192.59;4972290;28;20062;-66
2021/07/19 00:06:31;;;;;;;9.07;6.93;;;;;;;17.78;76.08;100193.66;4971820;28;20057;-66
2021/07/19 00:08:56;;;;;;;8.50;6.75;;;;;;;17.80;76.03;100189.09;4972097;28;20046;-66
2021/07/19 00:11:22;;;;;;;8.02;7.03;;;;;;;17.81;76.22;100193.44;4972214;28;20023;-65
2021/07/19 00:13:48;;;;;;;8.32;6.95;;;;;;;17.74;76.39;100190.34;4971754;28;20030;-66
2021/07/19 00:16:13;;;;;;;9.77;6.65;;;;;;;17.67;76.28;100185.56;4954266;28;20511;-67
2021/07/19 00:18:39;;;;;;;8.77;7.43;;;;;;;17.59;76.30;100186.97;4972152;28;20030;-67
2021/07/19 00:21:05;;;;;;;11.95;6.65;;;;;;;17.53;76.75;100184.75;4970557;28;20166;-67
2021/07/19 00:23:31;;;;;;;9.25;6.00;;;;;;;17.53;76.27;100182.09;4971958;28;20035;-66
2021/07/19 00:25:56;;;;;;;9.32;6.60;;;;;;;17.54;76.04;100190.94;4971749;28;20070;-67
2021/07/19 00:28:22;;;;;;;8.80;6.32;;;;;;;17.47;76.01;100187.84;4971488;28;20073;-66
2021/07/19 00:30:48;;;;;;;9.98;6.07;;;;;;;17.42;76.56;100178.47;4972457;28;20049;-67
2021/07/19 00:33:13;;;;;;;6.57;5.35;;;;;;;17.37;76.31;100174.31;4971088;28;20030;-66
2021/07/19 00:35:40;;;;;;;7.82;5.50;;;;;;;17.41;76.12;100174.13;4971601;28;20070;-66
2021/07/19 00:38:06;;;;;;;7.32;6.20;;;;;;;17.39;75.94;100160.91;4971037;28;20038;-67
2021/07/19 00:40:32;;;;;;;6.28;5.30;;;;;;;17.32;76.31;100168.47;4971413;28;20126;-66
2021/07/19 00:42:58;;;;;;;6.55;5.32;;;;;;;17.28;76.05;100164.34;4970947;28;20043;-67
2021/07/19 00:45:27;;;;;;;8.45;7.05;;;;;;;17.17;77.07;100173.06;4970636;28;20102;-67
2021/07/19 00:47:54;;;;;;;10.27;6.50;;;;;;;17.12;77.04;100169.88;4971100;28;20090;-67
2021/07/19 00:50:20;;;;;;;7.30;5.93;;;;;;;17.07;77.19;100171.19;4971108;28;20038;-67
2021/07/19 00:52:46;;;;;;;10.23;6.22;;;;;;;17.07;77.47;100165.84;4971248;28;20054;-67
2021/07/19 00:55:13;;;;;;;10.07;5.95;;;;;;;17.02;77.51;100174.16;4971596;28;20482;-67
2021/07/19 00:57:41;;;;;;;7.78;5.90;;;;;;;17.00;77.43;100173.41;4970792;28;20031;-66
2021/07/19 01:00:11;;;;;;;7.70;6.30;;;;;;;16.98;77.56;100177.13;4971145;28;20035;-66
2021/07/19 01:02:40;;;;;;;9.63;5.97;;;;;;;16.97;77.51;100167.47;4945378;28;20030;-67
2021/07/19 01:05:07;;;;;;;10.57;6.28;;;;;;;16.98;77.12;100175.31;4970932;28;20030;-66
2021/07/19 01:07:37;;;;;;;7.78;5.75;;;;;;;16.98;77.31;100163.81;4971328;28;20109;-66
2021/07/19 01:10:08;;;;;;;11.82;6.57;;;;;;;16.91;77.77;100168.75;4971079;28;20050;-67
2021/07/19 01:12:33;;;;;;;6.93;5.15;;;;;;;16.88;77.68;100168.94;4971645;28;20027;-66
2021/07/19 01:14:59;;;;;;;8.60;5.78;;;;;;;16.86;77.82;100160.19;4971586;28;20097;-66
2021/07/19 01:17:24;;;;;;;7.90;6.20;;;;;;;16.79;78.24;100169.59;4971278;28;20727;-67
2021/07/19 01:19:54;;;;;;;8.23;5.35;;;;;;;16.77;77.97;100169.66;4971201;28;20053;-66
2021/07/19 01:22:36;;;;;;;13.15;6.03;;;;;;;16.71;77.70;100164.75;4971887;28;20584;-67
2021/07/19 01:25:24;;;;;;;8.20;5.32;;;;;;;16.66;78.23;100159.75;4971202;28;20043;-66
2021/07/19 01:28:03;;;;;;;9.63;5.97;;;;;;;16.63;78.25;100156.44;4970446;28;20499;-67
2021/07/19 01:30:30;;;;;;;7.07;5.20;;;;;;;16.61;78.11;100166.34;4970445;28;20075;-67
2021/07/19 01:33:00;;;;;;;12.25;5.53;;;;;;;16.58;78.63;100156.75;4970446;28;20067;-66
2021/07/19 01:35:26;;;;;;;9.30;5.60;;;;;;;16.58;77.97;100153.25;4971004;28;20109;-66
2021/07/19 01:37:52;;;;;;;11.35;4.80;;;;;;;16.52;77.95;100159.84;4972943;28;20101;-66
2021/07/19 01:40:18;;;;;;;6.60;4.93;;;;;;;16.50;78.20;100151.09;4970718;28;20031;-66
2021/07/19 01:42:45;;;;;;;10.65;5.80;;;;;;;16.50;77.77;100151.09;4970641;28;20118;-67
2021/07/19 01:45:12;;;;;;;9.85;4.82;;;;;;;16.43;78.35;100149.81;4970590;28;20050;-66
2021/07/19 01:47:38;;;;;;;7.93;5.35;;;;;;;16.34;78.58;100156.59;4970876;28;20066;-66
2021/07/19 01:50:08;;;;;;;6.57;5.43;;;;;;;16.31;78.69;100156.81;4970614;28;20050;-66
2021/07/19 01:52:34;;;;;;;6.22;4.40;;;;;;;16.32;78.38;100145.22;4969505;28;20081;-66
2021/07/19 01:55:00;;;;;;;9.32;6.05;;;;;;;16.26;78.67;100150.94;4970446;28;20042;-65
2021/07/19 01:57:27;;;;;;;8.20;5.13;;;;;;;16.19;78.66;100152.31;4970031;28;20059;-67
2021/07/19 01:59:54;;;;;;;8.23;5.10;;;;;;;16.11;79.28;100150.16;4970534;28;20035;-67
2021/07/19 02:02:21;;;;;;;6.80;4.88;;;;;;;16.10;78.94;100144.00;4970303;28;20425;-67
2021/07/19 02:04:47;;;;;;;8.82;4.90;;;;;;;16.12;78.78;100148.34;4970734;28;20487;-66
2021/07/19 02:07:15;;;;;;;7.55;5.97;;;;;;;16.12;78.95;100143.91;4970586;28;20043;-67
2021/07/19 02:09:42;;;;;;;7.85;5.70;;;;;;;16.05;78.95;100143.44;4970307;28;20039;-67
2021/07/19 02:12:08;;;;;;;6.68;5.97;;;;;;;16.00;79.05;100142.91;4974280;28;20034;-67
2021/07/19 02:14:38;;;;;;;7.78;4.30;;;;;;;15.99;79.25;100145.66;4974482;28;20491;-67
2021/07/19 02:17:05;;;;;;;6.68;5.15;;;;;;;15.97;79.09;100139.56;4973794;28;20035;-67
2021/07/19 02:19:30;;;;;;;6.60;4.75;;;;;;;15.92;79.26;100142.53;4974261;28;20094;-67
2021/07/19 02:21:55;;;;;;;10.55;5.18;;;;;;;15.88;79.02;100141.91;4973800;28;20038;-67
2021/07/19 02:24:26;;;;;;;10.27;6.20;;;;;;;15.85;79.79;100139.44;4973853;28;20046;-67
2021/07/19 02:26:53;;;;;;;8.90;5.53;;;;;;;15.86;78.83;100138.47;4973914;28;20058;-69
2021/07/19 02:29:19;;;;;;;7.72;5.18;;;;;;;15.85;79.28;100139.44;4973781;28;20043;-67
2021/07/19 02:31:48;;;;;;;7.50;4.88;;;;;;;15.81;79.31;100145.91;4974575;28;20487;-67
2021/07/19 02:34:14;;;;;;;11.65;5.85;;;;;;;15.80;78.84;100144.22;4975162;28;20525;-67
2021/07/19 02:36:40;;;;;;;7.00;5.20;;;;;;;15.78;78.74;100150.59;4958805;28;20031;-66
2021/07/19 02:39:06;;;;;;;6.68;4.68;;;;;;;15.74;78.86;100151.72;4977813;28;20035;-67
2021/07/19 02:41:32;;;;;;;12.50;5.50;;;;;;;15.72;78.71;100150.97;4988065;28;20113;-67
2021/07/19 02:44:01;;;;;;;7.28;5.47;;;;;;;15.65;79.15;100151.34;4994785;28;20034;-66
2021/07/19 02:46:28;;;;;;;10.40;5.25;;;;;;;15.64;79.20;100156.75;4994560;28;20037;-66
2021/07/19 02:48:55;;;;;;;7.05;4.80;;;;;;;15.65;79.35;100158.44;4994981;28;20085;-67
2021/07/19 02:51:23;;;;;;;6.63;5.30;;;;;;;15.65;79.18;100163.75;4994748;28;20038;-67
2021/07/19 02:53:50;;;;;;;7.43;5.53;;;;;;;15.62;79.18;100159.50;4994825;28;20446;-67
2021/07/19 02:56:17;;;;;;;11.93;5.53;;;;;;;15.56;79.34;100157.25;4976600;28;20045;-67
2021/07/19 02:58:43;;;;;;;8.40;5.22;;;;;;;15.49;79.53;100161.25;4993793;28;20073;-66
2021/07/19 03:01:11;;;;;;;9.15;5.75;;;;;;;15.44;79.85;100158.88;4993751;28;20113;-67
2021/07/19 03:03:38;;;;;;;7.10;5.30;;;;;;;15.44;79.59;100156.22;4993122;28;20103;-67
2021/07/19 03:06:06;;;;;;;8.32;5.05;;;;;;;15.39;79.46;100155.66;4975725;28;20084;-65
2021/07/19 03:08:35;;;;;;;11.25;6.32;;;;;;;15.33;79.68;100157.84;4992902;28;20030;-65
2021/07/19 03:11:05;;;;;;;9.57;6.15;;;;;;;15.25;80.45;100153.84;4993059;28;20487;-66
2021/07/19 03:13:32;;;;;;;9.52;5.13;;;;;;;15.24;80.35;100153.97;4993847;28;20039;-67
2021/07/19 03:15:58;;;;;;;8.07;4.45;;;;;;;15.24;80.35;100151.31;4993851;28;20038;-66
2021/07/19 03:18:25;;;;;;;8.15;4.85;;;;;;;15.23;80.35;100139.84;4992700;28;20037;-66
2021/07/19 03:20:51;;;;;;;16.77;6.38;;;;;;;15.21;80.12;100143.53;4992575;28;20042;-66
2021/07/19 03:23:22;;;;;;;7.10;4.82;;;;;;;15.19;80.23;100135.66;4992339;28;20522;-66
2021/07/19 03:25:48;;;;;;;9.15;5.80;;;;;;;15.22;79.84;100124.00;4992202;28;20105;-66
2021/07/19 03:28:17;;;;;;;9.00;5.45;;;;;;;15.21;79.69;100128.47;4989954;28;20061;-66
2021/07/19 03:30:43;;;;;;;10.05;5.28;;;;;;;15.15;79.66;100123.53;4991372;28;20040;-68
2021/07/19 03:33:10;;;;;;;6.63;4.75;;;;;;;15.12;79.84;100133.50;4991882;28;20049;-66
2021/07/19 03:35:36;;;;;;;8.60;5.38;;;;;;;15.09;79.83;100134.53;4992606;28;20398;-66
2021/07/19 03:38:02;;;;;;;5.18;3.70;;;;;;;15.10;80.04;100146.84;4991754;28;20113;-68
2021/07/19 03:40:29;;;;;;;9.13;6.65;;;;;;;15.06;80.13;100142.69;4992133;28;20057;-68
2021/07/19 03:42:57;;;;;;;8.85;5.97;;;;;;;15.02;80.56;100139.38;4991496;28;20405;-67
2021/07/19 03:45:24;;;;;;;7.03;5.32;;;;;;;15.06;80.37;100136.53;4991612;28;20038;-67
2021/07/19 03:47:51;;;;;;;7.28;5.63;;;;;;;15.06;80.01;100150.63;4991347;28;20027;-67
2021/07/19 03:50:17;;;;;;;11.27;6.80;;;;;;;15.01;79.64;100148.31;4991665;28;20475;-67
2021/07/19 03:52:46;;;;;;;12.38;6.70;;;;;;;14.94;79.98;100146.97;4991697;28;20073;-67
2021/07/19 03:55:14;;;;;;;8.77;6.88;;;;;;;14.90;80.39;100145.44;4991509;28;20038;-66
2021/07/19 03:57:40;;;;;;;9.02;5.28;;;;;;;14.92;80.12;100140.03;4974353;28;20465;-65
2021/07/19 04:00:11;;;;;;;7.47;5.68;;;;;;;14.93;79.84;100144.41;4991452;28;20066;-66
2021/07/19 04:02:38;;;;;;;7.63;5.70;;;;;;;14.92;79.76;100145.34;4989365;28;20042;-66
2021/07/19 04:05:07;;;;;;;8.98;4.78;;;;;;;14.89;80.01;100145.53;4991989;28;20034;-66
2021/07/19 04:07:36;;;;;;;8.88;6.55;;;;;;;14.88;80.06;100147.31;4991652;28;20030;-67
2021/07/19 04:10:06;;;;;;;11.43;7.20;;;;;;;14.87;80.30;100145.63;4991701;28;20057;-66
2021/07/19 04:12:32;;;;;;;9.35;6.22;;;;;;;14.91;79.98;100149.78;4991350;28;20045;-66
2021/07/19 04:14:57;;;;;;;9.43;6.78;;;;;;;14.86;80.07;100143.91;4990998;28;20121;-65
2021/07/19 04:17:23;;;;;;;11.90;5.85;;;;;;;14.82;79.94;100148.56;4990734;28;20165;-66
2021/07/19 04:19:48;;;;;;;8.43;5.88;;;;;;;14.79;80.38;100148.75;4990815;28;20125;-66
2021/07/19 04:22:15;;;;;;;7.72;5.78;;;;;;;14.80;80.57;100152.25;4991278;28;20038;-66
2021/07/19 04:24:40;;;;;;;11.13;5.15;;;;;;;14.80;80.57;100150.47;4990995;28;20031;-65
2021/07/19 04:27:06;;;;;;;9.15;5.40;;;;;;;14.91;80.24;100148.94;4991344;28;20558;-65
2021/07/19 04:29:32;;;;;;;6.13;5.32;;;;;;;14.92;79.90;100148.00;4991182;28;20046;-65
2021/07/19 04:31:58;;;;;;;8.27;5.22;;;;;;;14.91;80.10;100154.25;4990867;28;20039;-65
2021/07/19 04:34:30;;;;;;;9.35;5.35;;;;;;;14.93;80.15;100155.88;4989638;28;20037;-66
2021/07/19 04:37:06;;;;;;;7.35;5.22;;;;;;;14.95;79.86;100161.94;4990829;28;20042;-66
2021/07/19 04:39:32;;;;;;;10.13;5.95;;;;;;;15.00;80.17;100164.31;4991182;28;20032;-66
2021/07/19 04:41:58;;;;;;;8.40;5.78;;;;;;;15.02;80.26;100160.63;4991343;28;20030;-66
2021/07/19 04:44:23;;;;;;;10.23;5.75;;;;;;;15.10;79.95;100161.94;4987652;28;20093;-65
2021/07/19 04:46:50;;;;;;;11.35;6.65;;;;;;;15.16;79.37;100161.53;4990465;28;20030;-67
2021/07/19 04:49:17;;;;;;;9.13;7.07;;;;;;;15.22;79.52;100167.34;4990479;28;20064;-67
2021/07/19 04:51:43;;;;;;;9.98;5.70;;;;;;;15.23;79.35;100163.75;4990769;28;20030;-67
2021/07/19 04:54:09;;;;;;;7.82;6.25;;;;;;;15.28;79.35;100173.22;4990454;28;20092;-67
2021/07/19 04:56:37;;;;;;;7.97;5.43;;;;;;;15.29;79.45;100170.47;4990409;28;20433;-66
2021/07/19 04:59:05;;;;;;;13.32;6.68;;;;;;;15.37;79.48;100177.97;4990471;28;20439;-67
2021/07/19 05:01:33;;;;;;;11.63;6.57;;;;;;;15.41;79.25;100174.19;4990201;28;20050;-67
2021/07/19 05:04:00;;;;;;;14.50;6.78;;;;;;;15.52;79.24;100176.97;4989634;28;20046;-67
2021/07/19 05:06:27;;;;;;;8.38;5.57;;;;;;;15.59;79.04;100175.66;4989953;28;20393;-67
2021/07/19 05:08:54;;;;;;;9.32;5.88;;;;;;;15.71;78.86;100182.03;4990379;28;20034;-67
2021/07/19 05:11:21;;;;;;;14.63;6.03;;;;;;;15.77;78.79;100178.94;4990406;28;20558;-67
2021/07/19 05:13:47;;;;;;;8.82;6.30;;;;;;;15.79;78.99;100186.84;4972916;28;20114;-65
2021/07/19 05:16:13;;;;;;;8.95;5.82;;;;;;;15.84;78.91;100187.41;4989889;28;20034;-64
2021/07/19 05:18:40;;;;;;;10.02;5.90;;;;;;;15.85;79.68;100181.13;4989344;28;20061;-66
2021/07/19 05:21:07;;;;;;;8.13;6.20;;;;;;;16.03;78.83;100173.75;4990718;28;20130;-67
2021/07/19 05:23:32;;;;;;;12.38;6.78;;;;;;;16.21;78.71;100177.00;4989995;28;20038;-68
2021/07/19 05:25:57;;;;;;;11.00;7.65;;;;;;;16.41;78.65;100175.66;4972479;28;20109;-67
2021/07/19 05:28:23;;;;;;;14.65;6.57;;;;;;;16.68;77.94;100181.78;4989822;28;20054;-67
2021/07/19 05:30:50;;;;;;;6.93;5.40;;;;;;;16.86;77.25;100182.38;4987148;28;20046;-66
2021/07/19 05:33:18;;;;;;;12.38;8.27;;;;;;;17.05;76.02;100184.59;4989906;28;20498;-66
2021/07/19 05:35:43;;;;;;;11.73;6.68;;;;;;;17.10;76.16;100187.78;4989703;28;20077;-67
2021/07/19 05:38:09;;;;;;;11.27;6.45;;;;;;;17.20;76.26;100196.00;4989821;28;20035;-67
2021/07/19 05:40:36;;;;;;;10.45;6.72;;;;;;;17.33;75.12;100199.50;4990524;28;20465;-67
2021/07/19 05:43:03;;;;;;;12.00;8.00;;;;;;;17.42;74.16;100194.47;4989876;28;20514;-66
2021/07/19 05:45:28;;;;;;;12.32;7.47;;;;;;;17.41;74.09;100195.44;4991072;28;20046;-68
2021/07/19 05:47:54;;;;;;;14.70;8.15;;;;;;;17.42;74.01;100191.81;4992381;28;20038;-67
2021/07/19 05:50:20;;;;;;;17.88;7.90;;;;;;;17.42;73.39;100194.47;4993565;28;20038;-67
2021/07/19 05:52:46;;;;;;;11.07;7.05;;;;;;;17.44;73.52;100190.75;4976351;28;20030;-68
2021/07/19 05:55:12;;;;;;;12.15;8.32;;;;;;;17.46;73.15;100194.16;4993877;28;20045;-67
2021/07/19 05:57:38;;;;;;;15.80;7.00;;;;;;;17.46;73.33;100196.81;4993654;28;20045;-67
2021/07/19 06:00:09;;;;;;;16.35;7.13;;;;;;;17.59;72.94;100188.78;4994010;28;20034;-68
2021/07/19 06:02:35;;;;;;;21.27;9.35;;;;;;;17.70;72.56;100191.53;4993702;28;20392;-67
2021/07/19 06:05:00;;;;;;;15.57;7.93;;;;;;;17.83;72.53;100188.03;4993438;28;20106;-67
2021/07/19 06:07:25;;;;;;;9.38;6.68;;;;;;;17.90;72.32;100186.59;4993031;28;20041;-67
2021/07/19 06:09:51;;;;;;;12.52;7.55;;;;;;;17.89;71.82;100188.41;4993458;28;20478;-67
2021/07/19 06:12:16;;;;;;;13.75;7.03;;;;;;;17.99;71.84;100188.56;4993617;28;20425;-66
2021/07/19 06:14:42;;;;;;;15.48;8.48;;;;;;;18.08;71.34;100200.41;4993215;28;20053;-68
2021/07/19 06:17:07;;;;;;;13.32;7.70;;;;;;;18.11;71.01;100193.00;4993428;28;20030;-68
2021/07/19 06:19:32;;;;;;;10.13;7.68;;;;;;;18.19;70.81;100193.31;4993179;28;20054;-68
2021/07/19 06:21:58;;;;;;;13.73;9.00;;;;;;;18.31;69.78;100199.56;4993263;28;20113;-68
2021/07/19 06:24:23;;;;;;;16.20;7.20;;;;;;;18.36;69.70;100191.16;4993326;28;20548;-67
2021/07/19 06:26:49;;;;;;;14.45;9.02;;;;;;;18.27;70.16;100199.91;4992826;28;20030;-67
2021/07/19 06:29:15;;;;;;;11.90;9.40;;;;;;;18.23;69.93;100189.41;4992949;28;20058;-66
2021/07/19 06:31:40;;;;;;;12.05;9.48;;;;;;;18.21;69.47;100194.06;4993089;28;20042;-67
2021/07/19 06:34:08;;;;;;;14.15;8.35;;;;;;;18.39;69.67;100194.47;4993644;28;20039;-66
2021/07/19 06:36:33;;;;;;;14.50;9.95;;;;;;;18.41;68.81;100197.88;4997725;28;20052;-66
2021/07/19 06:38:58;;;;;;;14.35;8.50;;;;;;;18.43;68.61;100203.97;4996217;28;20565;-66
2021/07/19 06:41:24;;;;;;;14.82;8.88;;;;;;;18.40;69.08;100200.66;4993777;28;20034;-66
2021/07/19 06:43:49;;;;;;;16.83;9.55;;;;;;;18.35;68.35;100190.31;4991780;28;20406;-68
2021/07/19 06:46:14;;;;;;;17.48;10.05;;;;;;;18.42;68.60;100190.72;4990888;28;20045;-66
2021/07/19 06:48:40;;;;;;;16.42;10.45;;;;;;;18.26;69.23;100188.34;4993177;28;20042;-67
2021/07/19 06:51:06;;;;;;;13.70;8.48;;;;;;;18.33;68.79;100191.41;4993307;28;20402;-67
2021/07/19 06:53:31;;;;;;;26.50;9.07;;;;;;;18.38;69.01;100186.56;4992632;28;20505;-67
2021/07/19 06:55:56;;;;;;;14.95;9.20;;;;;;;18.51;68.45;100192.72;4991705;28;20030;-66
2021/07/19 06:58:22;;;;;;;11.45;8.57;;;;;;;18.57;68.50;100199.38;4992137;28;20034;-67
2021/07/19 07:00:49;;;;;;;11.85;8.25;;;;;;;18.71;67.70;100190.34;4992620;28;20118;-67
2021/07/19 07:03:15;;;;;;;15.30;9.85;;;;;;;18.67;67.98;100201.22;4992632;28;20046;-66
2021/07/19 07:05:40;;;;;;;19.45;11.00;;;;;;;18.66;68.22;100202.22;4992464;28;20181;-66
2021/07/19 07:08:05;;;;;;;17.52;9.82;;;;;;;18.73;68.40;100213.28;4992808;28;20402;-66
2021/07/19 07:10:31;;;;;;;15.80;10.10;;;;;;;18.80;68.30;100208.34;4992610;28;20057;-67
2021/07/19 07:12:56;;;;;;;12.80;9.48;;;;;;;18.94;67.41;100205.47;4992927;28;20045;-66
2021/07/19 07:15:22;;;;;;;11.57;8.80;;;;;;;19.22;66.91;100203.28;4994095;28;20057;-68
2021/07/19 07:17:50;;;;;;;19.38;9.98;;;;;;;19.34;66.46;100202.34;4993458;28;20033;-66
2021/07/19 07:20:16;;;;;;;15.93;11.70;;;;;;;19.33;66.13;100210.50;4993324;28;20650;-66
2021/07/19 07:22:42;;;;;;;13.07;10.02;;;;;;;19.26;66.33;100204.78;4975385;28;20125;-67
2021/07/19 07:25:08;;;;;;;10.95;8.73;;;;;;;19.34;66.54;100210.34;4993964;28;20471;-67
2021/07/19 07:27:36;;;;;;;12.18;9.43;;;;;;;19.37;66.36;100211.94;4994143;28;20054;-68
2021/07/19 07:30:05;;;;;;;24.27;10.30;;;;;;;19.42;66.01;100207.06;4992792;28;20113;-67
2021/07/19 07:32:30;;;;;;;21.33;11.43;;;;;;;19.34;65.98;100212.19;4989244;28;20040;-67
2021/07/19 07:34:55;;;;;;;14.63;9.68;;;;;;;20.15;63.47;100211.84;4993911;28;20098;-67
2021/07/19 07:37:21;;;;;;;13.80;10.38;;;;;;;20.30;62.66;100203.53;4991438;28;20046;-67
2021/07/19 07:39:46;;;;;;;13.32;10.55;;;;;;;19.87;63.04;100209.75;4991879;28;20031;-68
2021/07/19 07:42:12;;;;;;;12.55;8.88;;;;;;;19.82;64.02;100203.91;4990431;28;20034;-67
2021/07/19 07:44:40;;;;;;;15.35;9.48;;;;;;;19.92;63.44;100203.03;4991717;28;20606;-68
2021/07/19 07:47:05;;;;;;;9.75;7.07;;;;;;;20.11;63.38;100204.22;4984333;28;20387;-68
2021/07/19 07:49:31;;;;;;;12.05;8.05;;;;;;;20.15;63.40;100202.97;4981934;28;20082;-68
2021/07/19 07:51:58;;;;;;;16.60;8.95;;;;;;;20.03;63.59;100198.63;4973254;28;20117;-68
2021/07/19 07:54:23;;;;;;;9.25;8.32;;;;;;;19.82;63.81;100198.56;4973626;28;20035;-67
2021/07/19 07:56:49;;;;;;;11.88;8.23;;;;;;;19.66;63.74;100201.59;4972821;28;20125;-68
2021/07/19 07:59:14;;;;;;;15.90;8.13;;;;;;;19.67;62.73;100192.59;4970265;28;20034;-67
2021/07/19 08:01:40;;;;;;;12.63;7.88;;;;;;;19.62;62.67;100208.19;4973705;28;20122;-66
2021/07/19 08:04:05;;;;;;;13.85;6.68;;;;;;;19.57;62.01;100216.56;4975233;28;20541;-66
2021/07/19 08:06:30;;;;;;;9.57;5.93;;;;;;;19.62;62.42;100214.38;4982730;28;20053;-66
2021/07/19 08:08:56;;;;;;;10.55;6.47;;;;;;;19.67;61.93;100204.19;4971559;28;20463;-67
2021/07/19 08:11:21;;;;;;;15.10;7.85;;;;;;;20.25;59.73;100205.72;4986956;28;20050;-67
2021/07/19 08:13:47;;;;;;;12.45;6.85;;;;;;;20.08;59.72;100205.31;4985728;28;20038;-67
2021/07/19 08:16:12;;;;;;;15.93;7.70;;;;;;;20.12;59.31;100203.22;4971637;28;20997;-67
2021/07/19 08:18:37;;;;;;;9.95;5.72;;;;;;;20.12;59.32;100205.91;4968060;28;20041;-66
2021/07/19 08:21:04;;;;;;;10.52;6.15;;;;;;;20.07;59.95;100202.75;4968085;28;20084;-66
2021/07/19 08:23:29;;;;;;;11.35;6.93;;;;;;;20.21;59.38;100205.16;4979078;28;20096;-66
2021/07/19 08:25:55;;;;;;;9.30;6.35;;;;;;;20.82;57.24;100193.78;4976866;28;20042;-65
2021/07/19 08:28:20;;;;;;;13.85;8.68;;;;;;;20.80;57.40;100199.28;5005242;28;20045;-66
2021/07/19 08:30:46;;;;;;;16.77;6.35;;;;;;;20.67;57.82;100198.63;5003825;28;20050;-66
2021/07/19 08:33:11;;;;;;;8.95;6.65;;;;;;;20.85;57.40;100187.34;5005300;28;20060;-71
2021/07/19 08:35:36;;;;;;;9.57;6.78;;;;;;;21.20;57.04;100201.22;4949185;28;20507;-72
2021/07/19 08:38:02;;;;;;;12.27;7.15;;;;;;;21.27;55.54;100190.81;4965504;28;20058;-72
2021/07/19 08:40:28;;;;;;;10.27;7.07;;;;;;;21.19;55.64;100191.47;4952050;28;20043;-72
2021/07/19 08:42:55;;;;;;;14.20;7.25;;;;;;;20.99;56.97;100186.97;4976140;28;20065;-73
2021/07/19 08:45:21;;;;;;;16.77;7.00;;;;;;;21.27;56.16;100182.75;4976342;28;20058;-72
2021/07/19 08:47:50;;;;;;;10.10;6.85;;;;;;;21.47;55.32;100178.34;4966458;28;20049;-72
2021/07/19 08:50:17;;;;;;;8.68;6.93;;;;;;;21.43;55.35;100179.59;4978724;28;20101;-72
2021/07/19 08:52:47;;;;;;;10.27;7.05;;;;;;;21.32;56.18;100180.50;4980873;28;20383;-73
2021/07/19 08:55:12;;;;;;;11.15;8.10;;;;;;;21.06;55.61;100174.75;4981377;28;20047;-72
2021/07/19 08:57:41;;;;;;;12.93;8.52;;;;;;;21.34;53.87;100183.03;4977034;28;20067;-72
2021/07/19 09:00:09;;;;;;;10.60;7.88;;;;;;;21.42;53.03;100186.78;4977798;28;20760;-74
2021/07/19 09:02:35;;;;;;;10.82;8.32;;;;;;;21.64;52.61;100188.41;4994123;28;20034;-72
2021/07/19 09:05:00;;;;;;;9.82;8.02;;;;;;;22.01;51.69;100185.09;5004033;28;20042;-73
2021/07/19 09:07:26;;;;;;;10.50;6.82;;;;;;;22.58;51.91;100181.75;4981373;28;20035;-73
2021/07/19 09:09:52;;;;;;;12.45;7.80;;;;;;;22.66;51.25;100179.19;4984507;28;20043;-73
2021/07/19 09:12:28;;;;;;;9.15;8.20;;;;;;;22.80;50.60;100181.44;4984382;28;20092;-72
2021/07/19 09:14:53;;;;;;;11.63;9.13;;;;;;;22.59;51.40;100181.59;4984609;28;20045;-70
2021/07/19 09:17:24;;;;;;;15.05;9.63;;;;;;;23.21;49.53;100181.19;4984166;28;20038;-73
2021/07/19 09:19:51;;;;;;;18.23;8.63;;;;;;;24.21;48.83;100167.75;4971870;28;20544;-73
2021/07/19 09:22:29;;;;;;;11.05;8.48;;;;;;;24.39;46.18;100174.97;4966071;28;20054;-73
2021/07/19 09:25:09;;;;;;;24.25;9.95;;;;;;;24.70;44.99;100174.59;4967054;28;20042;-74
2021/07/19 09:27:38;;;;;;;11.57;9.60;;;;;;;24.58;46.69;100184.75;4983762;28;20073;-74
2021/07/19 09:30:15;;;;;;;12.32;10.05;;;;;;;24.82;45.62;100179.56;4980384;28;20073;-72
2021/07/19 09:33:03;;;;;;;14.18;9.52;;;;;;;24.52;46.09;100174.63;4965986;28;20061;-73
2021/07/19 09:35:30;;;;;;;12.98;10.93;;;;;;;23.64;47.72;100179.75;4965415;28;20062;-74
2021/07/19 09:38:05;;;;;;;11.80;9.95;;;;;;;23.93;47.28;100172.34;4966777;28;20078;-71
2021/07/19 09:40:33;;;;;;;13.82;9.50;;;;;;;24.23;46.47;100167.59;4981514;28;20042;-73
2021/07/19 09:42:59;;;;;;;10.55;8.32;;;;;;;24.07;46.42;100167.44;4966298;28;20041;-73
2021/07/19 09:45:30;;;;;;;20.45;12.05;;;;;;;23.74;46.33;100165.25;4978970;28;20043;-73
2021/07/19 09:48:03;;;;;;;12.60;11.30;;;;;;;23.09;47.56;100177.88;4973441;28;20491;-72
2021/07/19 09:50:39;;;;;;;15.32;12.15;;;;;;;22.46;49.49;100176.53;4984027;28;20184;-73
2021/07/19 09:53:05;;;;;;;18.45;13.23;;;;;;;22.16;50.33;100176.66;4984311;28;20800;-72
2021/07/19 09:55:31;;;;;;;18.10;10.98;;;;;;;22.13;50.84;100176.94;4975238;28;20525;-73
2021/07/19 09:57:57;;;;;;;15.77;13.25;;;;;;;22.28;49.66;100180.94;4965491;28;20019;-72
2021/07/19 10:00:26;;;;;;;13.35;10.95;;;;;;;22.41;50.04;100183.31;4966022;28;20095;-73
2021/07/19 10:02:52;;;;;;;15.68;13.52;;;;;;;22.53;49.68;100184.03;4988141;28;20824;-73
2021/07/19 10:05:29;;;;;;;19.67;12.90;;;;;;;23.42;46.62;100171.06;4987955;28;20136;-73
2021/07/19 10:07:55;;;;;;;17.42;13.45;;;;;;;23.73;46.47;100177.03;5004383;28;20057;-72
2021/07/19 10:10:41;;;;;;;14.55;13.05;;;;;;;23.21;47.14;100170.44;4987040;28;20085;-74
2021/07/19 10:13:09;;;;;;;15.35;11.43;;;;;;;23.01;47.15;100172.34;4990509;28;20042;-73
2021/07/19 10:15:37;;;;;;;17.90;12.80;;;;;;;23.47;46.00;100174.16;5004359;28;20060;-73
2021/07/19 10:18:09;;;;;;;16.05;14.45;;;;;;;24.82;42.91;100171.47;5003962;28;20034;-72
2021/07/19 10:20:36;;;;;;;16.17;14.52;;;;;;;25.29;41.76;100172.94;5005116;28;20440;-73
2021/07/19 10:23:05;;;;;;;15.45;13.85;;;;;;;24.25;43.97;100173.69;4987280;28;20041;-72
2021/07/19 10:25:34;;;;;;;19.77;17.60;;;;;;;24.55;43.33;100167.06;4994283;28;20046;-72
2021/07/19 10:27:59;;;;;;;20.10;17.15;;;;;;;24.00;44.83;100175.31;4978808;28;20030;-73
2021/07/19 10:30:25;;;;;;;22.15;18.08;;;;;;;23.34;45.85;100171.81;4974674;28;20042;-72
2021/07/19 10:32:50;;;;;;;18.08;16.38;;;;;;;22.95;46.68;100168.38;4987365;28;20097;-73
2021/07/19 10:35:16;;;;;;;19.80;16.45;;;;;;;22.84;46.55;100168.53;4977013;28;20030;-72
2021/07/19 10:37:44;;;;;;;17.15;15.35;;;;;;;22.60;48.21;100166.34;4986900;28;20044;-74
2021/07/19 10:40:13;;;;;;;28.27;15.68;;;;;;;22.41;48.98;100165.34;4987614;28;20039;-72
2021/07/19 10:42:43;;;;;;;14.63;13.07;;;;;;;22.42;48.91;100166.19;4987882;28;20042;-74
2021/07/19 10:45:14;;;;;;;15.93;14.32;;;;;;;22.48;47.98;100165.66;4970491;28;20035;-73
2021/07/19 10:47:53;;;;;;;19.02;14.30;;;;;;;22.91;47.52;100154.41;4987433;28;20062;-74
2021/07/19 10:50:26;;;;;;;21.83;14.98;;;;;;;24.12;43.32;100163.28;4969564;28;20066;-72
2021/07/19 10:52:52;;;;;;;15.88;13.07;;;;;;;24.43;42.18;100155.63;4967548;28;20026;-73
2021/07/19 10:55:44;;;;;;;16.95;13.55;;;;;;;24.06;43.82;100154.97;4967773;28;20030;-72
2021/07/19 10:58:17;;;;;;;19.33;14.10;;;;;;;24.81;42.39;100160.84;4964289;28;20034;-72
2021/07/19 11:00:47;;;;;;;19.05;12.23;;;;;;;25.61;40.39;100152.50;4982466;28;20034;-73
2021/07/19 11:03:16;;;;;;;23.35;15.35;;;;;;;25.47;40.75;100149.44;5005961;28;20060;-73
2021/07/19 11:05:49;;;;;;;18.48;13.38;;;;;;;25.12;41.25;100149.56;4992510;28;20038;-72
2021/07/19 11:08:24;;;;;;;22.08;14.32;;;;;;;23.88;44.72;100142.34;4967573;28;20046;-71
2021/07/19 11:10:55;;;;;;;14.52;11.88;;;;;;;23.29;46.33;100149.03;4969149;28;20795;-72
2021/07/19 11:13:32;;;;;;;15.52;12.77;;;;;;;23.35;46.40;100160.03;4987038;28;20057;-73
2021/07/19 11:16:00;;;;;;;17.20;12.55;;;;;;;23.43;46.41;100155.75;4969105;28;20034;-73
2021/07/19 11:18:28;;;;;;;14.60;11.60;;;;;;;23.77;45.77;100151.47;4965026;28;20038;-73
2021/07/19 11:20:57;;;;;;;17.05;13.00;;;;;;;23.76;46.06;100152.47;4960295;28;20775;-73